createdAt,value
2023-02-15T00:01:11.802Z,40.30
2023-02-15T00:03:13.578Z,40.20
2023-02-15T00:05:15.462Z,40.20
2023-02-15T00:07:18.680Z,40.30
2023-02-15T00:09:20.446Z,40.20
2023-02-15T00:11:22.739Z,40.20
2023-02-15T00:13:24.488Z,40.20
2023-02-15T00:15:26.229Z,40.20
2023-02-15T00:17:28.804Z,40.10
2023-02-15T00:19:30.615Z,40.10
2023-02-15T00:21:33.595Z,39.90
2023-02-15T00:23:35.695Z,40.10
2023-02-15T00:25:37.484Z,40.10
2023-02-15T00:27:39.185Z,39.90
2023-02-15T00:29:40.993Z,39.90
2023-02-15T00:31:42.920Z,39.90
2023-02-15T00:33:44.788Z,40.00
2023-02-15T00:35:46.520Z,40.00
2023-02-15T00:37:48.245Z,40.50
2023-02-15T00:39:50.228Z,39.90
2023-02-15T00:41:52.636Z,39.90
2023-02-15T00:43:54.396Z,39.90
2023-02-15T00:45:56.271Z,39.80
2023-02-15T00:47:58.024Z,40.50
2023-02-15T00:49:59.769Z,39.90
2023-02-15T00:52:01.506Z,39.80
2023-02-15T00:54:04.038Z,39.80
2023-02-15T00:56:05.785Z,39.80
2023-02-15T00:58:08.198Z,39.80
2023-02-15T01:00:10.253Z,39.80
2023-02-15T01:02:12.024Z,39.80
2023-02-15T01:04:13.851Z,39.70
2023-02-15T01:06:16.713Z,39.70
2023-02-15T01:08:18.620Z,39.70
2023-02-15T01:10:20.450Z,39.60
2023-02-15T01:12:22.271Z,39.70
2023-02-15T01:14:24.081Z,39.70
2023-02-15T01:16:27.164Z,39.60
2023-02-15T01:18:29.149Z,39.60
2023-02-15T01:20:30.993Z,39.60
2023-02-15T01:22:32.857Z,39.60
2023-02-15T01:24:34.662Z,39.60
2023-02-15T01:26:37.786Z,39.60
2023-02-15T01:28:40.606Z,39.50
2023-02-15T01:30:42.611Z,39.60
2023-02-15T01:32:44.421Z,39.50
2023-02-15T01:34:46.185Z,39.50
2023-02-15T01:36:48.520Z,39.50
2023-02-15T01:38:50.423Z,39.50
2023-02-15T01:40:52.842Z,39.40
2023-02-15T01:42:55.730Z,39.60
2023-02-15T01:44:57.544Z,39.50
2023-02-15T01:46:59.809Z,39.30
2023-02-15T01:49:08.709Z,39.40
2023-02-15T01:51:10.673Z,39.50
2023-02-15T01:53:12.453Z,39.40
2023-02-15T01:55:14.699Z,39.30
2023-02-15T01:57:19.225Z,39.30
2023-02-15T01:59:22.861Z,39.30
2023-02-15T02:01:25.754Z,39.30
2023-02-15T02:03:42.829Z,39.30
2023-02-15T02:05:44.694Z,39.30
2023-02-15T02:07:49.505Z,39.30
2023-02-15T02:09:51.444Z,39.30
2023-02-15T02:11:53.460Z,39.20
2023-02-15T02:13:55.947Z,39.20
2023-02-15T02:16:03.762Z,39.20
2023-02-15T02:18:05.785Z,39.20
2023-02-15T02:20:18.418Z,39.20
2023-02-15T02:22:34.587Z,39.20
2023-02-15T02:24:48.409Z,39.10
2023-02-15T02:27:09.240Z,39.10
2023-02-15T02:29:10.950Z,39.10
2023-02-15T02:31:23.002Z,39.10
2023-02-15T02:33:31.516Z,39.00
2023-02-15T02:36:01.032Z,39.00
2023-02-15T02:38:21.486Z,39.00
2023-02-15T02:40:23.156Z,39.00
2023-02-15T02:42:39.927Z,39.00
2023-02-15T02:44:47.792Z,39.60
2023-02-15T02:47:08.088Z,38.90
2023-02-15T02:49:09.893Z,39.00
2023-02-15T02:51:11.738Z,39.00
2023-02-15T02:53:13.549Z,39.00
2023-02-15T02:55:21.377Z,39.00
2023-02-15T02:57:24.078Z,39.00
2023-02-15T02:59:28.516Z,39.00
2023-02-15T03:01:33.723Z,38.90
2023-02-15T03:03:41.075Z,38.90
2023-02-15T03:05:45.086Z,38.90
2023-02-15T03:07:50.356Z,38.90
2023-02-15T03:09:53.859Z,39.00
2023-02-15T03:11:55.770Z,39.00
2023-02-15T03:13:58.464Z,38.90
2023-02-15T03:16:01.709Z,38.90
2023-02-15T03:18:03.972Z,38.90
2023-02-15T03:20:12.010Z,38.90
2023-02-15T03:22:26.725Z,38.90
2023-02-15T03:24:32.433Z,38.90
2023-02-15T03:26:35.385Z,38.90
2023-02-15T03:28:39.731Z,38.90
2023-02-15T03:30:42.983Z,38.90
2023-02-15T03:32:45.588Z,38.80
2023-02-15T03:34:47.432Z,38.90
2023-02-15T03:37:21.790Z,38.80
2023-02-15T03:39:23.540Z,38.80
2023-02-15T03:41:27.424Z,38.90
2023-02-15T03:43:58.267Z,38.90
2023-02-15T03:46:12.870Z,38.80
2023-02-15T03:48:15.021Z,38.90
2023-02-15T03:50:25.505Z,38.80
2023-02-15T03:52:29.146Z,38.80
2023-02-15T03:54:32.609Z,39.00
2023-02-15T03:56:35.464Z,38.90
2023-02-15T03:58:37.254Z,38.80
2023-02-15T04:00:41.634Z,39.40
2023-02-15T04:02:53.638Z,38.80
2023-02-15T04:04:55.442Z,38.80
2023-02-15T04:06:57.258Z,38.80
2023-02-15T04:08:59.013Z,38.90
2023-02-15T04:11:00.735Z,38.80
2023-02-15T04:13:02.592Z,38.80
2023-02-15T04:15:04.532Z,38.80
2023-02-15T04:17:07.432Z,38.80
2023-02-15T04:19:09.220Z,38.80
2023-02-15T04:21:11.020Z,38.70
2023-02-15T04:23:12.829Z,38.70
2023-02-15T04:25:14.691Z,38.70
2023-02-15T04:27:17.814Z,38.70
2023-02-15T04:29:20.326Z,39.30
2023-02-15T04:31:22.138Z,38.70
2023-02-15T04:33:23.957Z,38.70
2023-02-15T04:35:25.717Z,38.70
2023-02-15T04:37:27.527Z,38.70
2023-02-15T04:39:29.325Z,38.70
2023-02-15T04:41:31.064Z,38.90
2023-02-15T04:43:32.810Z,38.60
2023-02-15T04:45:34.690Z,38.60
2023-02-15T04:47:36.515Z,38.50
2023-02-15T04:49:38.220Z,38.70
2023-02-15T04:51:40.016Z,39.30
2023-02-15T04:53:41.829Z,38.60
2023-02-15T04:55:43.533Z,38.50
2023-02-15T04:57:45.266Z,38.70
2023-02-15T04:59:47.017Z,38.60
2023-02-15T05:01:48.754Z,38.60
2023-02-15T05:03:50.561Z,38.60
2023-02-15T05:05:52.336Z,38.50
2023-02-15T05:07:54.113Z,38.50
2023-02-15T05:09:55.913Z,38.60
2023-02-15T05:11:57.621Z,38.60
2023-02-15T05:13:59.382Z,38.60
2023-02-15T05:16:01.472Z,38.50
2023-02-15T05:18:03.473Z,38.50
2023-02-15T05:20:05.695Z,38.40
2023-02-15T05:22:07.452Z,38.50
2023-02-15T05:24:09.204Z,38.40
2023-02-15T05:26:12.346Z,38.50
2023-02-15T05:28:14.150Z,38.40
2023-02-15T05:30:16.039Z,38.40
2023-02-15T05:32:17.939Z,38.40
2023-02-15T05:34:19.752Z,38.40
2023-02-15T05:36:21.511Z,38.40
2023-02-15T05:38:23.323Z,38.40
2023-02-15T05:40:25.048Z,38.40
2023-02-15T05:42:26.882Z,38.40
2023-02-15T05:44:28.587Z,38.50
2023-02-15T05:46:30.471Z,38.40
2023-02-15T05:48:32.684Z,38.40
2023-02-15T05:50:34.387Z,38.40
2023-02-15T05:52:36.232Z,39.00
2023-02-15T05:54:37.934Z,38.30
2023-02-15T05:56:39.708Z,38.30
2023-02-15T05:58:42.525Z,38.30
2023-02-15T06:00:44.260Z,38.40
2023-02-15T06:02:46.119Z,38.30
2023-02-15T06:04:47.988Z,38.30
2023-02-15T06:06:49.745Z,38.30
2023-02-15T06:08:51.470Z,38.20
2023-02-15T06:10:53.246Z,38.20
2023-02-15T06:12:54.996Z,38.40
2023-02-15T06:14:56.714Z,38.20
2023-02-15T06:16:58.520Z,38.30
2023-02-15T06:19:00.320Z,38.20
2023-02-15T06:21:02.096Z,38.20
2023-02-15T06:23:04.061Z,38.20
2023-02-15T06:25:06.021Z,38.20
2023-02-15T06:27:07.754Z,38.20
2023-02-15T06:29:09.530Z,38.20
2023-02-15T06:31:11.443Z,38.10
2023-02-15T06:33:13.274Z,38.20
2023-02-15T06:35:15.095Z,38.20
2023-02-15T06:37:17.133Z,38.20
2023-02-15T06:39:18.873Z,38.10
2023-02-15T06:41:20.682Z,38.20
2023-02-15T06:43:22.427Z,38.10
2023-02-15T06:45:24.155Z,38.20
2023-02-15T06:47:26.010Z,38.20
2023-02-15T06:49:27.869Z,38.20
2023-02-15T06:51:29.645Z,38.10
2023-02-15T06:53:31.450Z,38.10
2023-02-15T06:55:33.249Z,38.20
2023-02-15T06:57:34.938Z,38.10
2023-02-15T06:59:36.743Z,38.10
2023-02-15T07:01:38.561Z,38.20
2023-02-15T07:03:40.372Z,38.10
2023-02-15T07:05:42.139Z,38.10
2023-02-15T07:07:43.902Z,38.10
2023-02-15T07:09:45.674Z,38.10
2023-02-15T07:11:47.447Z,38.20
2023-02-15T07:13:49.248Z,38.00
2023-02-15T07:15:50.990Z,38.10
2023-02-15T07:17:52.784Z,38.00
2023-02-15T07:19:54.604Z,38.00
2023-02-15T07:21:56.354Z,38.00
2023-02-15T07:23:58.525Z,37.90
2023-02-15T07:26:00.896Z,38.00
2023-02-15T07:28:03.802Z,38.00
2023-02-15T07:30:06.580Z,38.00
2023-02-15T07:32:08.438Z,37.90
2023-02-15T07:34:10.207Z,37.90
2023-02-15T07:36:12.140Z,37.90
2023-02-15T07:38:13.918Z,38.10
2023-02-15T07:40:15.634Z,37.90
2023-02-15T07:42:17.683Z,38.00
2023-02-15T07:44:19.482Z,38.00
2023-02-15T07:46:21.300Z,38.00
2023-02-15T07:48:24.993Z,37.90
2023-02-15T07:50:26.811Z,37.80
2023-02-15T07:52:28.602Z,38.00
2023-02-15T07:54:30.336Z,37.90
2023-02-15T07:56:33.617Z,37.80
2023-02-15T07:58:36.144Z,38.10
2023-02-15T08:00:37.956Z,38.00
2023-02-15T08:02:40.002Z,37.90
2023-02-15T08:04:41.901Z,37.90
2023-02-15T08:06:43.661Z,38.00
2023-02-15T08:08:45.373Z,38.00
2023-02-15T08:10:47.182Z,37.90
2023-02-15T08:12:48.881Z,38.00
2023-02-15T08:14:50.664Z,37.90
2023-02-15T08:16:53.582Z,37.90
2023-02-15T08:18:55.781Z,37.90
2023-02-15T08:20:57.473Z,37.80
2023-02-15T08:22:59.278Z,37.80
2023-02-15T08:25:01.018Z,37.80
2023-02-15T08:27:05.049Z,37.80
2023-02-15T08:29:08.406Z,37.90
2023-02-15T08:31:11.589Z,37.70
2023-02-15T08:33:13.368Z,37.90
2023-02-15T08:35:15.098Z,37.80
2023-02-15T08:37:16.906Z,37.90
2023-02-15T08:39:18.668Z,37.80
2023-02-15T08:41:25.194Z,37.80
2023-02-15T08:43:27.368Z,37.90
2023-02-15T08:45:29.132Z,37.90
2023-02-15T08:47:31.382Z,38.00
2023-02-15T08:49:33.229Z,38.40
2023-02-15T08:51:36.646Z,38.10
2023-02-15T08:53:39.059Z,38.00
2023-02-15T08:55:41.306Z,37.60
2023-02-15T08:57:43.189Z,37.90
2023-02-15T08:59:45.125Z,37.80
2023-02-15T09:01:47.533Z,37.30
2023-02-15T09:03:50.170Z,37.50
2023-02-15T09:05:51.861Z,37.60
2023-02-15T09:07:53.643Z,37.30
2023-02-15T09:09:55.342Z,38.10
2023-02-15T09:11:59.474Z,36.90
2023-02-15T09:14:20.509Z,35.50
2023-02-15T09:16:22.961Z,36.50
2023-02-15T09:18:24.830Z,36.10
2023-02-15T09:20:26.588Z,36.60
2023-02-15T09:22:28.417Z,36.20
2023-02-15T09:24:32.907Z,36.40
2023-02-15T09:26:36.953Z,36.60
2023-02-15T09:28:38.855Z,36.50
2023-02-15T09:30:40.756Z,36.30
2023-02-15T09:32:42.619Z,36.40
2023-02-15T09:34:44.420Z,36.50
2023-02-15T09:36:46.790Z,36.30
2023-02-15T09:38:49.160Z,36.40
2023-02-15T09:40:54.230Z,36.50
2023-02-15T09:43:05.015Z,36.50
2023-02-15T09:45:22.078Z,36.80
2023-02-15T09:47:26.890Z,36.80
2023-02-15T09:49:28.629Z,37.00
2023-02-15T09:51:40.682Z,36.80
2023-02-15T09:53:54.300Z,36.80
2023-02-15T09:56:02.264Z,37.00
2023-02-15T09:58:07.131Z,37.00
2023-02-15T10:00:12.008Z,37.40
2023-02-15T10:04:18.435Z,36.60
2023-02-15T10:06:32.470Z,37.00
2023-02-15T10:08:53.150Z,36.90
2023-02-15T10:11:07.918Z,37.20
2023-02-15T10:13:09.641Z,36.80
2023-02-15T10:15:21.911Z,37.00
2023-02-15T10:17:32.509Z,37.30
2023-02-15T10:19:46.903Z,37.20
2023-02-15T10:21:48.669Z,37.00
2023-02-15T10:24:29.107Z,37.00
2023-02-15T10:26:56.977Z,36.90
2023-02-15T10:29:14.166Z,36.90
2023-02-15T10:31:16.017Z,37.00
2023-02-15T10:33:28.398Z,37.30
2023-02-15T10:35:48.717Z,37.00
2023-02-15T10:38:01.664Z,37.00
2023-02-15T10:40:12.318Z,37.00
2023-02-15T10:42:17.060Z,37.00
2023-02-15T10:44:37.573Z,37.00
2023-02-15T10:46:39.333Z,37.00
2023-02-15T10:48:47.153Z,37.00
2023-02-15T10:50:59.192Z,37.30
2023-02-15T10:53:09.616Z,37.30
2023-02-15T10:55:37.695Z,37.20
2023-02-15T10:57:45.318Z,37.20
2023-02-15T10:59:47.001Z,37.70
2023-02-15T11:02:07.580Z,37.80
2023-02-15T11:04:17.417Z,37.40
2023-02-15T11:06:20.679Z,37.40
2023-02-15T11:08:25.172Z,37.40
2023-02-15T11:10:29.915Z,37.30
2023-02-15T11:12:32.482Z,37.50
2023-02-15T11:14:38.502Z,37.30
2023-02-15T11:16:42.401Z,37.30
2023-02-15T11:18:51.669Z,37.30
2023-02-15T11:21:00.009Z,37.30
2023-02-15T11:23:02.431Z,37.50
2023-02-15T11:25:15.905Z,37.50
2023-02-15T11:27:17.633Z,37.50
2023-02-15T11:29:22.037Z,37.60
2023-02-15T11:31:25.033Z,37.60
2023-02-15T11:33:35.930Z,37.70
2023-02-15T11:35:39.637Z,37.60
2023-02-15T11:37:41.330Z,38.00
2023-02-15T11:39:43.172Z,37.20
2023-02-15T11:41:50.082Z,37.30
2023-02-15T11:44:01.756Z,37.30
2023-02-15T11:46:03.867Z,37.20
2023-02-15T11:48:12.639Z,37.10
2023-02-15T11:50:18.738Z,37.10
2023-02-15T11:52:20.588Z,36.90
2023-02-15T11:54:25.021Z,37.00
2023-02-15T11:56:27.038Z,36.90
2023-02-15T11:58:34.843Z,36.90
2023-02-15T12:00:39.186Z,36.90
2023-02-15T12:02:43.633Z,37.10
2023-02-15T12:04:49.838Z,37.60
2023-02-15T12:07:02.179Z,37.50
2023-02-15T12:09:13.113Z,37.40
2023-02-15T12:11:20.704Z,37.30
2023-02-15T12:13:22.439Z,37.30
2023-02-15T12:15:31.375Z,37.20
2023-02-15T12:17:36.022Z,37.20
2023-02-15T12:19:40.019Z,37.20
2023-02-15T12:21:42.547Z,37.20
2023-02-15T12:23:48.330Z,37.20
2023-02-15T12:25:52.478Z,37.20
2023-02-15T12:27:54.359Z,37.10
2023-02-15T12:30:16.414Z,37.30
2023-02-15T12:32:47.612Z,37.00
2023-02-15T12:34:49.538Z,37.10
2023-02-15T12:39:08.596Z,36.90
2023-02-15T12:41:22.683Z,37.70
2023-02-15T12:43:32.836Z,37.20
2023-02-15T12:45:34.604Z,37.20
2023-02-15T12:47:36.388Z,37.30
2023-02-15T12:49:38.534Z,37.70
2023-02-15T12:52:06.445Z,37.70
2023-02-15T12:54:23.482Z,37.50
2023-02-15T12:56:27.247Z,37.60
2023-02-15T12:58:30.178Z,37.60
2023-02-15T13:00:32.023Z,37.80
2023-02-15T13:02:36.512Z,37.90
2023-02-15T13:04:48.164Z,38.10
2023-02-15T13:06:50.985Z,38.40
2023-02-15T13:08:54.673Z,38.10
2023-02-15T13:11:11.972Z,38.60
2023-02-15T13:13:19.022Z,38.50
2023-02-15T13:15:41.005Z,39.10
2023-02-15T13:17:42.809Z,39.20
2023-02-15T13:19:46.729Z,38.50
2023-02-15T13:21:49.462Z,38.40
2023-02-15T13:24:00.798Z,38.30
2023-02-15T13:26:04.496Z,38.20
2023-02-15T13:28:07.974Z,38.30
2023-02-15T13:30:33.121Z,38.30
2023-02-15T13:32:36.831Z,38.40
2023-02-15T13:34:39.796Z,38.30
2023-02-15T13:36:46.210Z,38.60
2023-02-15T13:38:56.432Z,38.20
2023-02-15T13:41:04.924Z,38.10
2023-02-15T13:43:40.756Z,38.30
2023-02-15T13:46:01.602Z,38.00
2023-02-15T13:48:07.162Z,38.10
2023-02-15T13:50:18.004Z,37.90
2023-02-15T13:52:19.722Z,37.80
2023-02-15T13:54:36.842Z,38.00
2023-02-15T13:56:48.075Z,38.10
2023-02-15T13:58:55.921Z,38.30
2023-02-15T14:01:01.161Z,38.40
2023-02-15T14:03:03.300Z,38.50
2023-02-15T14:05:23.760Z,38.20
2023-02-15T14:07:25.526Z,38.60
2023-02-15T14:09:30.335Z,38.90
2023-02-15T14:11:38.046Z,39.10
2023-02-15T14:13:45.880Z,39.20
2023-02-15T14:15:47.577Z,39.30
2023-02-15T14:17:50.624Z,39.30
2023-02-15T14:19:57.578Z,39.40
2023-02-15T14:22:01.298Z,39.60
2023-02-15T14:24:15.077Z,39.80
2023-02-15T14:26:26.106Z,39.90
2023-02-15T14:28:32.182Z,39.70
2023-02-15T14:30:35.745Z,40.00
2023-02-15T14:32:43.372Z,40.00
2023-02-15T14:34:45.109Z,40.00
2023-02-15T14:36:46.862Z,39.90
2023-02-15T14:39:07.251Z,40.00
2023-02-15T14:41:21.723Z,39.90
2023-02-15T14:43:28.090Z,39.70
2023-02-15T14:45:39.846Z,39.70
2023-02-15T14:47:44.784Z,39.70
2023-02-15T14:49:46.556Z,39.60
2023-02-15T14:51:48.342Z,39.00
2023-02-15T14:53:50.114Z,39.30
2023-02-15T14:56:14.831Z,38.70
2023-02-15T14:58:16.740Z,38.80
2023-02-15T15:00:44.668Z,39.00
2023-02-15T15:02:50.677Z,39.10
2023-02-15T15:04:52.473Z,39.00
2023-02-15T15:07:23.642Z,39.20
2023-02-15T15:09:29.302Z,39.30
2023-02-15T15:11:42.881Z,39.60
2023-02-15T15:13:55.011Z,39.30
2023-02-15T15:15:57.530Z,38.40
2023-02-15T15:18:00.486Z,38.60
2023-02-15T15:20:25.732Z,39.00
2023-02-15T15:22:28.620Z,39.30
2023-02-15T15:24:39.662Z,39.50
2023-02-15T15:26:41.537Z,39.60
2023-02-15T15:28:43.326Z,39.60
2023-02-15T15:30:45.421Z,39.70
2023-02-15T15:32:47.145Z,39.60
2023-02-15T15:35:06.008Z,39.60
2023-02-15T15:37:18.764Z,39.80
2023-02-15T15:39:44.503Z,39.80
2023-02-15T15:42:06.462Z,39.90
2023-02-15T15:44:12.924Z,39.90
2023-02-15T15:46:34.985Z,39.90
2023-02-15T15:48:38.113Z,40.00
2023-02-15T15:50:41.719Z,40.00
2023-02-15T15:52:54.427Z,40.00
2023-02-15T15:54:58.242Z,40.10
2023-02-15T15:57:04.732Z,40.20
2023-02-15T15:59:07.723Z,40.50
2023-02-15T16:01:10.205Z,40.40
2023-02-15T16:03:15.647Z,40.40
2023-02-15T16:05:22.854Z,40.10
2023-02-15T16:07:28.434Z,40.30
2023-02-15T16:09:30.287Z,40.10
2023-02-15T16:11:32.174Z,40.20
2023-02-15T16:13:59.007Z,40.00
2023-02-15T16:16:27.044Z,40.10
2023-02-15T16:18:28.933Z,40.00
2023-02-15T16:20:37.699Z,39.70
2023-02-15T16:22:39.477Z,40.00
2023-02-15T16:25:10.421Z,39.90
2023-02-15T16:27:24.299Z,39.90
2023-02-15T16:29:33.429Z,39.80
2023-02-15T16:31:35.260Z,39.80
2023-02-15T16:33:38.181Z,40.00
2023-02-15T16:35:41.475Z,40.00
2023-02-15T16:37:43.275Z,40.00
2023-02-15T16:39:46.408Z,40.00
2023-02-15T16:41:48.912Z,39.90
2023-02-15T16:43:51.342Z,40.10
2023-02-15T16:45:56.560Z,40.70
2023-02-15T16:47:58.687Z,40.40
2023-02-15T16:50:01.995Z,40.20
2023-02-15T16:52:04.917Z,40.40
2023-02-15T16:54:07.918Z,40.20
2023-02-15T16:56:09.733Z,40.30
2023-02-15T16:58:16.042Z,40.10
2023-02-15T17:00:19.584Z,39.40
2023-02-15T17:02:49.392Z,38.70
2023-02-15T17:05:01.867Z,38.60
2023-02-15T17:07:05.371Z,38.40
2023-02-15T17:09:14.365Z,38.60
2023-02-15T17:11:16.101Z,38.10
2023-02-15T17:13:18.069Z,38.00
2023-02-15T17:15:25.993Z,37.90
2023-02-15T17:17:27.703Z,38.00
2023-02-15T17:19:31.609Z,37.90
2023-02-15T17:21:34.952Z,38.00
2023-02-15T17:23:42.276Z,38.00
2023-02-15T17:25:44.208Z,38.10
2023-02-15T17:27:51.187Z,38.10
2023-02-15T17:29:56.335Z,38.20
2023-02-15T17:31:58.520Z,39.30
2023-02-15T17:34:01.176Z,38.60
2023-02-15T17:36:10.735Z,38.50
2023-02-15T17:38:20.928Z,38.70
2023-02-15T17:40:26.887Z,38.50
2023-02-15T17:42:28.827Z,38.70
2023-02-15T17:44:30.537Z,38.70
2023-02-15T17:46:36.676Z,38.80
2023-02-15T17:48:40.482Z,38.80
2023-02-15T17:50:42.245Z,38.90
2023-02-15T17:52:44.041Z,39.00
2023-02-15T17:54:45.796Z,39.10
2023-02-15T17:56:47.596Z,39.00
2023-02-15T17:58:49.353Z,39.10
2023-02-15T18:00:59.019Z,39.10
2023-02-15T18:03:00.867Z,39.10
2023-02-15T18:05:02.621Z,39.20
2023-02-15T18:07:04.493Z,39.10
2023-02-15T18:09:06.298Z,39.10
2023-02-15T18:11:08.429Z,39.20
2023-02-15T18:13:10.225Z,39.30
2023-02-15T18:15:12.994Z,39.20
2023-02-15T18:17:15.842Z,39.30
2023-02-15T18:19:27.641Z,39.20
2023-02-15T18:21:29.428Z,39.30
2023-02-15T18:23:31.102Z,39.30
2023-02-15T18:25:32.845Z,39.30
2023-02-15T18:27:34.642Z,39.20
2023-02-15T18:29:36.612Z,39.30
2023-02-15T18:31:38.868Z,39.30
2023-02-15T18:33:44.110Z,39.30
2023-02-15T18:35:45.937Z,39.30
2023-02-15T18:37:47.774Z,39.40
2023-02-15T18:39:50.656Z,39.30
2023-02-15T18:41:52.582Z,39.30
2023-02-15T18:43:54.391Z,39.40
2023-02-15T18:45:56.120Z,39.40
2023-02-15T18:47:58.086Z,39.50
2023-02-15T18:49:59.837Z,39.40
2023-02-15T18:52:01.922Z,39.50
2023-02-15T18:54:03.693Z,39.50
2023-02-15T18:56:05.570Z,39.50
2023-02-15T18:58:14.387Z,39.50
2023-02-15T19:00:20.776Z,39.50
2023-02-15T19:02:22.557Z,39.50
2023-02-15T19:04:25.903Z,39.50
2023-02-15T19:06:31.369Z,39.50
2023-02-15T19:08:33.197Z,39.50
2023-02-15T19:10:35.714Z,39.50
2023-02-15T19:12:37.498Z,39.50
2023-02-15T19:14:39.357Z,39.50
2023-02-15T19:16:41.121Z,39.50
2023-02-15T19:18:42.881Z,39.50
2023-02-15T19:20:45.641Z,39.50
2023-02-15T19:22:47.968Z,39.50
2023-02-15T19:24:51.005Z,39.50
2023-02-15T19:26:53.100Z,39.50
2023-02-15T19:28:54.865Z,39.50
2023-02-15T19:30:56.662Z,39.50
2023-02-15T19:32:58.953Z,39.50
2023-02-15T19:35:00.749Z,39.50
2023-02-15T19:37:02.981Z,39.50
2023-02-15T19:39:04.666Z,39.50
2023-02-15T19:41:08.161Z,39.60
2023-02-15T19:43:17.234Z,39.60
2023-02-15T19:45:23.289Z,39.60
2023-02-15T19:47:27.161Z,39.60
2023-02-15T19:49:28.973Z,39.50
2023-02-15T19:51:31.006Z,39.60
2023-02-15T19:53:32.770Z,39.60
2023-02-15T19:55:34.921Z,39.50
2023-02-15T19:57:36.698Z,39.50
2023-02-15T19:59:38.615Z,39.50
2023-02-15T20:01:41.126Z,39.50
2023-02-15T20:03:42.957Z,39.50
2023-02-15T20:05:45.036Z,39.50
2023-02-15T20:07:47.994Z,39.50
2023-02-15T20:09:49.719Z,39.50
2023-02-15T20:11:54.560Z,39.50
2023-02-15T20:13:56.294Z,39.50
2023-02-15T20:15:58.076Z,39.50
2023-02-15T20:18:00.409Z,39.50
2023-02-15T20:20:02.189Z,39.50
2023-02-15T20:22:03.915Z,40.20
2023-02-15T20:24:07.607Z,39.60
2023-02-15T20:26:16.693Z,39.50
2023-02-15T20:28:25.679Z,39.50
2023-02-15T20:30:28.950Z,39.60
2023-02-15T20:32:30.920Z,39.50
2023-02-15T20:34:32.655Z,39.60
2023-02-15T20:36:35.105Z,39.40
2023-02-15T20:38:36.918Z,39.40
2023-02-15T20:40:38.687Z,39.50
2023-02-15T20:42:40.475Z,39.50
2023-02-15T20:44:42.216Z,39.40
2023-02-15T20:46:44.020Z,39.50
2023-02-15T20:48:45.856Z,39.40
2023-02-15T20:50:47.666Z,39.40
2023-02-15T20:52:50.440Z,39.50
2023-02-15T20:54:52.214Z,39.40
2023-02-15T20:56:53.960Z,39.50
2023-02-15T20:58:55.710Z,39.50
2023-02-15T21:00:58.497Z,39.50
2023-02-15T21:03:01.111Z,39.40
2023-02-15T21:05:02.877Z,39.50
2023-02-15T21:07:04.606Z,39.50
2023-02-15T21:09:06.442Z,39.30
2023-02-15T21:11:17.497Z,39.50
2023-02-15T21:13:21.392Z,39.40
2023-02-15T21:15:26.191Z,39.50
2023-02-15T21:17:27.942Z,39.50
2023-02-15T21:19:30.509Z,39.40
2023-02-15T21:21:32.260Z,39.50
2023-02-15T21:23:35.386Z,39.40
2023-02-15T21:25:37.398Z,39.40
2023-02-15T21:27:39.151Z,39.40
2023-02-15T21:29:40.913Z,39.40
2023-02-15T21:31:42.878Z,39.40
2023-02-15T21:33:44.910Z,39.40
2023-02-15T21:35:49.338Z,39.40
2023-02-15T21:37:52.252Z,39.50
2023-02-15T21:39:53.986Z,39.50
2023-02-15T21:41:56.217Z,39.40
2023-02-15T21:43:57.990Z,39.40
2023-02-15T21:46:01.470Z,39.40
2023-02-15T21:48:03.366Z,39.40
2023-02-15T21:50:06.613Z,39.50
2023-02-15T21:52:09.719Z,39.40
2023-02-15T21:54:12.454Z,39.40
2023-02-15T21:56:18.982Z,39.40
2023-02-15T21:58:21.459Z,39.30
2023-02-15T22:00:24.122Z,39.40
2023-02-15T22:02:28.120Z,39.40
2023-02-15T22:04:30.211Z,39.40
2023-02-15T22:06:31.949Z,39.40
2023-02-15T22:08:33.947Z,39.30
2023-02-15T22:10:35.692Z,39.40
2023-02-15T22:12:37.757Z,39.50
2023-02-15T22:14:40.563Z,39.40
2023-02-15T22:16:42.348Z,39.40
2023-02-15T22:18:44.305Z,39.40
2023-02-15T22:20:46.008Z,39.40
2023-02-15T22:22:48.375Z,39.30
2023-02-15T22:24:50.172Z,39.40
2023-02-15T22:26:51.906Z,39.50
2023-02-15T22:28:53.776Z,39.40
2023-02-15T22:30:55.567Z,39.50
2023-02-15T22:32:58.078Z,39.40
2023-02-15T22:34:59.887Z,39.50
2023-02-15T22:37:01.680Z,39.40
2023-02-15T22:39:03.444Z,39.40
2023-02-15T22:41:05.541Z,39.40
2023-02-15T22:43:07.659Z,39.40
2023-02-15T22:45:10.751Z,39.40
2023-02-15T22:47:20.546Z,39.40
2023-02-15T22:49:22.298Z,39.30
2023-02-15T22:51:24.692Z,39.40
2023-02-15T22:53:26.455Z,39.40
2023-02-15T22:55:30.115Z,39.50
2023-02-15T22:57:32.176Z,39.40
2023-02-15T22:59:33.995Z,39.50
2023-02-15T23:01:36.710Z,39.40
2023-02-15T23:03:38.499Z,39.40
2023-02-15T23:05:40.349Z,39.30
2023-02-15T23:07:42.188Z,39.40
2023-02-15T23:09:44.120Z,39.40
2023-02-15T23:11:45.926Z,39.40
2023-02-15T23:13:48.204Z,39.40
2023-02-15T23:15:54.616Z,39.30
2023-02-15T23:17:56.642Z,39.40
2023-02-15T23:19:58.358Z,39.40
2023-02-15T23:22:00.350Z,39.30
2023-02-15T23:24:15.220Z,39.40
2023-02-15T23:26:19.976Z,39.40
2023-02-15T23:28:23.804Z,39.30
2023-02-15T23:30:25.649Z,39.30
2023-02-15T23:32:27.864Z,39.40
2023-02-15T23:34:29.681Z,39.40
2023-02-15T23:36:35.863Z,39.30
2023-02-15T23:38:37.687Z,39.30
2023-02-15T23:40:39.433Z,39.40
2023-02-15T23:42:41.178Z,39.30
2023-02-15T23:44:43.729Z,39.30
2023-02-15T23:46:46.466Z,39.30
2023-02-15T23:48:48.218Z,39.30
2023-02-15T23:50:49.958Z,39.40
2023-02-15T23:52:52.968Z,39.30
2023-02-15T23:54:54.718Z,39.30
2023-02-15T23:56:59.453Z,39.30
2023-02-15T23:59:01.314Z,39.60
